Time;durP1;ratioP1;P1;durP2;ratioP2;P2;SDS_P1;SDS_P2;PMS_P1;PMS_P2;Temp;Humidity;BMP_temperature;BMP_pressure;BME280_temperature;BME280_humidity;BME280_pressure;Samples;Min_cycle;Max_cycle;Signal;HPM_P1;HPM_P2
2022/09/17 00:02:54;;;;;;;3.12;1.10;;;;;;;12.46;85.12;99087.52;2860417;81;21033;-88
2022/09/17 00:06:56;;;;;;;3.93;1.60;;;;;;;12.43;85.08;99083.34;2844304;81;21001;-88
2022/09/17 00:10:58;;;;;;;1.00;0.85;;;;;;;12.41;85.25;99089.34;2849622;82;21009;-88
2022/09/17 00:15:00;;;;;;;2.47;1.20;;;;;;;12.38;85.46;99085.20;2813584;82;20954;-87
2022/09/17 00:19:03;;;;;;;3.37;1.27;;;;;;;12.38;85.63;99091.86;2841975;81;21005;-88
2022/09/17 00:23:04;;;;;;;3.25;1.05;;;;;;;12.38;85.84;99089.20;2854415;81;21400;-87
2022/09/17 00:27:05;;;;;;;2.92;1.47;;;;;;;12.34;85.55;99086.51;2863369;81;20985;-88
2022/09/17 00:31:10;;;;;;;2.33;1.05;;;;;;;12.36;85.89;99085.84;2845698;82;21013;-88
2022/09/17 00:35:11;;;;;;;2.25;0.80;;;;;;;12.39;85.65;99083.34;2842407;82;21045;-89
2022/09/17 00:39:14;;;;;;;4.83;1.50;;;;;;;12.38;85.83;99082.53;2842562;82;21006;-88
2022/09/17 00:43:36;;;;;;;3.20;1.27;;;;;;;12.39;85.64;99078.86;2848863;81;21176;-89
2022/09/17 00:47:45;;;;;;;1.72;0.75;;;;;;;12.39;85.78;99084.19;2821756;82;20997;-89
2022/09/17 00:51:56;;;;;;;1.52;0.78;;;;;;;12.40;85.90;99069.86;2841357;82;21022;-88
2022/09/17 00:56:08;;;;;;;2.72;0.80;;;;;;;12.39;85.32;99075.34;2835739;82;21536;-89
2022/09/17 01:00:13;;;;;;;5.08;0.98;;;;;;;12.40;85.30;99082.34;2863693;81;21060;-89
2022/09/17 01:04:20;;;;;;;2.27;0.70;;;;;;;12.39;85.22;99076.20;2844609;82;21073;-88
2022/09/17 01:08:35;;;;;;;2.83;1.07;;;;;;;12.41;84.20;99074.67;2840597;82;21041;-89
2022/09/17 01:13:24;;;;;;;1.03;0.93;;;;;;;12.46;84.78;99080.84;2849532;81;21053;-88
2022/09/17 01:17:49;;;;;;;2.22;0.88;;;;;;;12.43;84.49;99082.86;2878484;81;20989;-89
2022/09/17 01:22:07;;;;;;;2.92;0.95;;;;;;;12.39;84.26;99075.34;2849361;82;21112;-87
2022/09/17 01:26:39;;;;;;;5.70;1.82;;;;;;;12.39;84.51;99073.53;2835759;82;21076;-88
2022/09/17 01:31:10;;;;;;;3.37;1.00;;;;;;;12.42;84.51;99070.52;2842536;82;21717;-88
2022/09/17 01:35:37;;;;;;;8.55;1.32;;;;;;;12.40;83.94;99061.02;2835718;82;21006;-89
2022/09/17 01:40:15;;;;;;;2.80;1.10;;;;;;;12.39;84.65;99053.53;2849439;82;21553;-88
2022/09/17 01:44:42;;;;;;;1.45;0.70;;;;;;;12.34;84.99;99058.51;2696245;86;20979;-89
2022/09/17 01:48:48;;;;;;;2.92;1.00;;;;;;;12.26;85.33;99055.86;2703256;86;20995;-89
2022/09/17 01:52:52;;;;;;;1.30;0.85;;;;;;;12.24;85.44;99050.67;2639566;87;21134;-88
2022/09/17 01:57:20;;;;;;;1.70;1.00;;;;;;;12.27;85.52;99049.52;2671389;88;21564;-88
2022/09/17 02:01:24;;;;;;;1.10;0.70;;;;;;;12.26;85.59;99049.19;2672804;87;21658;-88
2022/09/17 02:05:43;;;;;;;2.40;0.95;;;;;;;12.26;85.58;99050.01;2648506;88;21429;-88
2022/09/17 02:09:49;;;;;;;4.10;0.70;;;;;;;12.36;85.83;99041.84;2657941;87;21074;-89
2022/09/17 02:14:05;;;;;;;3.20;1.05;;;;;;;12.42;85.17;99050.52;2650253;88;21082;-88
2022/09/17 02:18:24;;;;;;;1.03;0.80;;;;;;;12.48;85.07;99049.50;2640247;89;21101;-88
2022/09/17 02:22:30;;;;;;;3.33;2.17;;;;;;;12.56;85.53;99050.33;2857624;82;21010;-89
2022/09/17 02:26:35;;;;;;;1.42;0.90;;;;;;;12.58;85.86;99043.50;2834174;82;21018;-88
2022/09/17 02:30:37;;;;;;;6.45;1.95;;;;;;;12.58;86.33;99039.50;2833908;82;21014;-88
2022/09/17 02:34:38;;;;;;;2.95;1.10;;;;;;;12.57;86.54;99044.48;2840337;81;21038;-89
2022/09/17 02:38:45;;;;;;;2.12;1.32;;;;;;;12.51;87.25;99048.68;2809507;82;21018;-88
2022/09/17 02:43:18;;;;;;;10.40;1.30;;;;;;;12.46;89.95;99066.18;2833447;82;21620;-88
2022/09/17 02:47:54;;;;;;;2.72;1.17;;;;;;;12.44;92.09;99055.66;2806275;82;21037;-89
2022/09/17 02:52:30;;;;;;;1.30;0.72;;;;;;;12.37;92.81;99062.17;2835162;82;21077;-88
2022/09/17 02:56:55;;;;;;;1.15;0.98;;;;;;;12.38;93.04;99044.34;2843282;82;21010;-89
2022/09/17 03:01:02;;;;;;;3.05;1.15;;;;;;;12.35;93.63;99058.02;2842896;82;21073;-88
2022/09/17 03:05:07;;;;;;;4.83;1.40;;;;;;;12.41;94.05;99047.52;2841268;82;21088;-88
2022/09/17 03:09:08;;;;;;;2.83;1.30;;;;;;;12.39;93.69;99040.68;2816395;82;21033;-89
2022/09/17 03:13:10;;;;;;;2.00;1.07;;;;;;;12.40;93.22;99039.19;2814160;82;21084;-88
2022/09/17 03:17:13;;;;;;;2.92;1.30;;;;;;;12.40;93.48;99029.86;2866410;81;21017;-89
2022/09/17 03:21:14;;;;;;;1.30;1.20;;;;;;;12.49;93.53;99031.16;2842782;82;21014;-88
2022/09/17 03:25:16;;;;;;;1.92;1.42;;;;;;;12.47;92.86;99037.17;2818796;81;21469;-89
2022/09/17 03:29:17;;;;;;;2.70;1.47;;;;;;;12.49;93.00;99033.34;2845983;82;21053;-88
2022/09/17 03:33:18;;;;;;;3.75;1.70;;;;;;;12.53;92.87;99024.00;2865300;81;21561;-89
2022/09/17 03:37:20;;;;;;;4.72;1.40;;;;;;;12.61;92.48;99035.16;2843580;81;21008;-90
2022/09/17 03:41:22;;;;;;;3.22;1.45;;;;;;;12.56;92.10;99046.81;2821521;82;21021;-89
2022/09/17 03:45:24;;;;;;;2.85;1.62;;;;;;;12.60;92.65;99050.83;2842041;82;21629;-91
2022/09/17 03:49:25;;;;;;;2.58;1.50;;;;;;;12.56;93.83;99060.16;2842336;82;21018;-90
2022/09/17 03:53:26;;;;;;;18.87;2.27;;;;;;;12.52;95.26;99056.16;2800573;83;21014;-90
2022/09/17 03:57:27;;;;;;;2.85;1.05;;;;;;;12.44;94.95;99054.34;2837604;81;21090;-90
2022/09/17 04:01:29;;;;;;;3.45;1.72;;;;;;;12.47;95.29;99051.33;2823563;83;21038;-91
2022/09/17 04:05:30;;;;;;;2.52;1.62;;;;;;;12.43;94.63;99049.52;2816302;83;21057;-90
2022/09/17 04:09:31;;;;;;;3.65;1.45;;;;;;;12.47;95.62;99046.51;2812220;83;21003;-91
2022/09/17 04:13:32;;;;;;;4.30;1.50;;;;;;;12.48;95.58;99052.17;2823611;82;21057;-91
2022/09/17 04:17:34;;;;;;;7.15;1.60;;;;;;;12.46;95.54;99046.18;2802531;81;21063;-92
2022/09/17 04:21:35;;;;;;;4.20;2.40;;;;;;;12.44;96.30;99057.00;2816600;83;21101;-91
2022/09/17 04:25:36;;;;;;;2.90;1.52;;;;;;;12.43;96.15;99050.00;2846351;81;21001;-90
2022/09/17 04:29:37;;;;;;;4.55;1.60;;;;;;;12.47;95.33;99057.99;2833153;82;21073;-90
2022/09/17 04:33:39;;;;;;;3.90;2.00;;;;;;;12.50;96.05;99059.50;2823723;82;20970;-91
2022/09/17 04:37:40;;;;;;;2.47;1.37;;;;;;;12.53;95.70;99061.34;2857252;81;21094;-91
2022/09/17 04:41:41;;;;;;;6.00;2.10;;;;;;;12.52;94.67;99060.16;2834304;82;21050;-90
2022/09/17 04:45:47;;;;;;;3.83;1.98;;;;;;;12.53;96.06;99057.83;2840327;81;21656;-91
2022/09/17 04:49:48;;;;;;;;;;;;;;;12.51;95.84;99059.34;2820318;83;21065;-91
2022/09/17 04:53:50;;;;;;;6.67;2.62;;;;;;;12.51;95.60;99060.68;2823660;83;20473;-90
2022/09/17 04:57:53;;;;;;;7.72;2.02;;;;;;;12.47;96.60;99058.52;2817385;83;21160;-91
2022/09/17 05:01:54;;;;;;;12.05;2.45;;;;;;;12.50;97.07;99074.17;2823465;81;21066;-89
2022/09/17 05:05:55;;;;;;;15.65;2.10;;;;;;;12.50;96.35;99070.17;2749591;83;21549;-91
2022/09/17 05:09:56;;;;;;;4.83;1.77;;;;;;;12.53;97.78;99069.83;2817099;83;21014;-92
2022/09/17 05:13:57;;;;;;;3.65;2.22;;;;;;;12.51;97.60;99071.34;2811594;83;21108;-91
2022/09/17 05:17:59;;;;;;;7.37;1.55;;;;;;;12.57;97.48;99080.00;2817256;83;20999;-91
2022/09/17 05:22:01;;;;;;;3.15;1.85;;;;;;;12.45;96.82;99080.52;2811890;83;21520;-92
2022/09/17 05:26:02;;;;;;;5.22;1.37;;;;;;;12.56;97.34;99085.01;2816533;83;21003;-90
2022/09/17 05:30:05;;;;;;;3.92;2.40;;;;;;;12.59;96.86;99086.52;2786959;83;21474;-91
2022/09/17 05:34:08;;;;;;;4.92;1.92;;;;;;;12.65;98.20;99084.50;2811083;83;21598;-90
2022/09/17 05:38:09;;;;;;;8.28;2.12;;;;;;;12.66;97.53;99091.50;2842761;83;21002;-91
2022/09/17 05:42:11;;;;;;;3.20;2.35;;;;;;;12.61;97.45;99092.52;2730239;86;21035;-92
2022/09/17 05:46:12;;;;;;;4.92;2.40;;;;;;;12.71;97.80;99085.14;2735437;85;21023;-89
2022/09/17 05:50:13;;;;;;;6.40;2.85;;;;;;;12.69;97.43;99077.81;2740281;85;21035;-92
2022/09/17 05:54:15;;;;;;;3.05;1.60;;;;;;;12.74;97.05;99083.14;2732835;85;21031;-90
2022/09/17 05:58:18;;;;;;;5.87;2.27;;;;;;;12.83;97.32;99070.13;2739786;85;21063;-91
2022/09/17 06:02:20;;;;;;;8.33;2.58;;;;;;;12.83;96.55;99069.61;2748505;85;21043;-92
2022/09/17 06:06:21;;;;;;;5.33;1.87;;;;;;;12.91;98.10;99079.95;2749389;85;21027;-92
2022/09/17 06:10:22;;;;;;;4.45;2.20;;;;;;;12.88;97.26;99071.77;2737127;85;21039;-92
2022/09/17 06:14:23;;;;;;;2.65;1.70;;;;;;;12.98;97.44;99077.77;2759636;85;21174;-91
2022/09/17 06:18:26;;;;;;;17.48;4.40;;;;;;;13.04;96.81;99075.41;2737644;85;21023;-90
2022/09/17 06:22:28;;;;;;;6.58;3.27;;;;;;;13.07;96.94;99075.91;2742809;84;21015;-91
2022/09/17 06:26:29;;;;;;;9.30;3.65;;;;;;;13.09;95.50;99077.05;2743974;85;21003;-91
2022/09/17 06:30:30;;;;;;;6.95;2.90;;;;;;;13.15;96.74;99080.36;2716884;85;21058;-90
2022/09/17 06:34:32;;;;;;;7.28;2.95;;;;;;;13.19;96.66;99083.04;2743445;85;21074;-90
2022/09/17 06:38:35;;;;;;;8.08;4.03;;;;;;;13.22;96.51;99082.69;2737314;87;21023;-90
2022/09/17 06:42:36;;;;;;;5.53;3.00;;;;;;;13.27;96.93;99088.34;2736999;85;21047;-90
2022/09/17 06:46:38;;;;;;;6.28;3.52;;;;;;;13.36;96.89;99094.97;2743457;85;21526;-90
2022/09/17 06:50:39;;;;;;;18.37;3.33;;;;;;;13.32;95.59;99084.31;2673036;85;21070;-90
2022/09/17 06:54:40;;;;;;;4.33;3.40;;;;;;;13.35;95.36;99083.47;2687700;85;21042;-89
2022/09/17 06:58:42;;;;;;;4.28;3.02;;;;;;;13.48;97.37;99095.48;2705888;85;21024;-90
2022/09/17 07:02:56;;;;;;;3.87;2.85;;;;;;;13.49;96.16;99089.13;2732824;85;22422;-89
2022/09/17 07:06:57;;;;;;;6.90;3.67;;;;;;;13.63;97.52;99091.03;2747254;83;21184;-89
2022/09/17 07:10:59;;;;;;;9.35;3.20;;;;;;;13.67;95.21;99087.03;2820801;83;21018;-90
2022/09/17 07:15:01;;;;;;;4.40;2.92;;;;;;;13.76;96.37;99095.84;2818264;83;21022;-90
2022/09/17 07:19:04;;;;;;;3.98;2.60;;;;;;;13.77;95.51;99104.67;2797673;83;21026;-91
2022/09/17 07:23:05;;;;;;;6.20;2.37;;;;;;;13.78;94.95;99093.81;2792293;83;21033;-90
2022/09/17 07:27:07;;;;;;;10.03;2.98;;;;;;;13.86;95.69;99096.95;2798819;83;21059;-91
2022/09/17 07:31:10;;;;;;;6.53;3.52;;;;;;;13.91;94.02;99109.77;2820339;83;21601;-90
2022/09/17 07:35:12;;;;;;;7.37;3.77;;;;;;;14.02;94.71;99119.22;2821250;83;21633;-90
2022/09/17 07:39:13;;;;;;;6.45;3.95;;;;;;;13.92;94.42;99122.12;2793490;83;20966;-90
2022/09/17 07:43:15;;;;;;;6.58;3.42;;;;;;;14.01;95.29;99133.10;2816604;83;21526;-90
2022/09/17 07:47:16;;;;;;;9.53;3.37;;;;;;;14.03;95.32;99153.81;2812876;83;21057;-89
2022/09/17 07:51:20;;;;;;;9.60;2.75;;;;;;;14.09;92.86;99166.47;2802084;83;21029;-90
2022/09/17 07:55:22;;;;;;;4.00;3.17;;;;;;;14.03;93.85;99171.19;2792023;83;21137;-89
2022/09/17 07:59:24;;;;;;;6.55;3.02;;;;;;;14.07;95.02;99177.84;2813138;83;21065;-90
2022/09/17 08:03:25;;;;;;;2.62;1.80;;;;;;;14.28;94.79;99177.72;2819108;83;21546;-89
2022/09/17 08:07:26;;;;;;;4.55;1.95;;;;;;;14.31;93.36;99177.36;2820735;83;21042;-90
2022/09/17 08:11:29;;;;;;;2.83;2.50;;;;;;;14.32;93.65;99176.34;2822015;83;21022;-90
2022/09/17 08:15:31;;;;;;;3.83;2.75;;;;;;;14.32;92.89;99175.53;2769369;84;21061;-90
2022/09/17 08:19:32;;;;;;;5.12;2.83;;;;;;;14.35;93.73;99173.83;2798994;83;21060;-89
2022/09/17 08:23:36;;;;;;;5.58;2.55;;;;;;;14.24;93.75;99179.91;2813975;83;20990;-89
2022/09/17 08:27:38;;;;;;;6.33;2.70;;;;;;;14.24;94.10;99182.58;2780786;83;21041;-90
2022/09/17 08:31:39;;;;;;;3.67;2.40;;;;;;;14.17;94.90;99192.33;2797648;83;21030;-90
2022/09/17 08:35:40;;;;;;;6.33;3.33;;;;;;;14.10;94.42;99196.73;2800691;83;21042;-90
2022/09/17 08:39:41;;;;;;;5.35;2.00;;;;;;;14.12;95.33;99188.84;2846029;81;21114;-90
2022/09/17 08:44:08;;;;;;;5.95;3.17;;;;;;;14.18;95.17;99191.84;2822447;83;20983;-90
2022/09/17 08:48:13;;;;;;;4.05;2.77;;;;;;;14.22;96.02;99177.09;2829162;83;21046;-91
2022/09/17 08:52:58;;;;;;;6.80;4.30;;;;;;;14.27;95.17;99158.67;2822003;83;20982;-90
2022/09/17 08:57:28;;;;;;;5.62;3.15;;;;;;;14.34;97.79;99156.94;2821699;83;20999;-92
2022/09/17 09:02:11;;;;;;;6.92;2.72;;;;;;;14.40;94.91;99148.71;2772677;84;21063;-91
2022/09/17 09:06:14;;;;;;;4.78;2.80;;;;;;;14.30;94.31;99160.17;2702504;86;21625;-90
2022/09/17 09:10:36;;;;;;;4.47;4.10;;;;;;;14.55;95.84;99142.09;2658096;87;21570;-90
2022/09/17 09:15:04;;;;;;;4.12;3.12;;;;;;;14.57;95.14;99158.80;2538901;92;21125;-90
2022/09/17 09:19:23;;;;;;;4.15;2.80;;;;;;;14.61;94.40;99157.42;2569863;90;21083;-89
2022/09/17 09:23:34;;;;;;;3.25;2.58;;;;;;;14.75;96.68;99171.06;2571979;90;21567;-91
2022/09/17 09:28:00;;;;;;;5.37;2.27;;;;;;;14.74;95.63;99172.05;2566591;90;21074;-90
2022/09/17 09:32:25;;;;;;;3.25;1.75;;;;;;;14.70;94.96;99190.30;2482291;94;21124;-91
2022/09/17 09:36:29;;;;;;;3.42;2.80;;;;;;;14.61;95.07;99173.97;2437027;95;21315;-90
2022/09/17 09:40:47;;;;;;;5.55;1.75;;;;;;;14.70;94.73;99192.45;2467432;95;21464;-89
2022/09/17 09:44:49;;;;;;;2.80;1.80;;;;;;;14.70;95.64;99180.41;2418942;96;21584;-90
2022/09/17 09:49:11;;;;;;;3.25;2.52;;;;;;;14.89;96.07;99184.97;2435766;96;21073;-90
2022/09/17 09:53:33;;;;;;;2.30;1.80;;;;;;;15.22;96.63;99183.83;2508147;92;21115;-90
2022/09/17 09:57:50;;;;;;;2.25;1.62;;;;;;;15.46;96.00;99163.16;2539336;92;21084;-87
2022/09/17 10:01:51;;;;;;;1.70;1.35;;;;;;;15.68;92.05;99172.94;2526859;92;21066;-88
2022/09/17 10:06:02;;;;;;;5.97;1.80;;;;;;;15.74;90.51;99189.29;2543104;92;21074;-88
2022/09/17 10:10:09;;;;;;;7.75;2.17;;;;;;;15.78;89.41;99191.42;2588453;90;21054;-90
2022/09/17 10:14:23;;;;;;;5.65;2.30;;;;;;;15.83;89.29;99183.64;2688332;85;21414;-89
2022/09/17 10:18:25;;;;;;;2.30;1.25;;;;;;;15.77;88.06;99184.89;2694401;87;21020;-89
2022/09/17 10:22:31;;;;;;;5.12;2.37;;;;;;;15.73;88.95;99207.23;2799997;83;21038;-89
2022/09/17 10:26:35;;;;;;;2.22;1.70;;;;;;;15.51;87.62;99199.09;2817879;83;21025;-90
2022/09/17 10:30:36;;;;;;;2.58;1.30;;;;;;;15.62;90.81;99221.91;2820946;83;21010;-90
2022/09/17 10:34:41;;;;;;;3.87;1.67;;;;;;;15.64;89.79;99234.65;2817940;83;21022;-90
2022/09/17 10:38:49;;;;;;;6.55;1.52;;;;;;;15.67;88.51;99252.19;2800267;83;21038;-90
2022/09/17 10:42:50;;;;;;;1.62;1.15;;;;;;;15.50;88.87;99248.34;2784414;83;21099;-90
2022/09/17 10:46:52;;;;;;;3.95;1.45;;;;;;;15.59;91.51;99245.06;2817100;83;21535;-89
2022/09/17 10:50:55;;;;;;;5.00;1.92;;;;;;;15.52;88.47;99234.77;2821043;83;21022;-89
2022/09/17 10:55:37;;;;;;;2.98;1.10;;;;;;;15.47;90.01;99235.31;2821094;82;21147;-90
2022/09/17 11:00:14;;;;;;;1.32;1.20;;;;;;;15.63;89.44;99225.44;2848392;82;21065;-90
2022/09/17 11:04:35;;;;;;;2.12;1.92;;;;;;;15.82;89.27;99211.47;2848532;82;21052;-90
2022/09/17 11:08:48;;;;;;;2.92;1.72;;;;;;;16.40;90.40;99205.36;2822641;83;21052;-89
2022/09/17 11:13:11;;;;;;;3.47;1.82;;;;;;;16.68;86.32;99189.82;2780164;83;21529;-89
2022/09/17 11:17:48;;;;;;;5.25;1.27;;;;;;;16.51;85.70;99188.45;2802917;83;21077;-90
2022/09/17 11:22:36;;;;;;;3.17;1.05;;;;;;;15.51;94.09;99205.78;2795599;84;21612;-90
2022/09/17 11:26:48;;;;;;;2.27;0.55;;;;;;;14.87;100.00;99201.73;2677945;88;21074;-90
2022/09/17 11:30:57;;;;;;;0.40;0.40;;;;;;;15.12;100.00;99189.45;2710573;87;20977;-90
2022/09/17 11:35:25;;;;;;;1.15;0.62;;;;;;;15.33;100.00;99178.02;2655005;89;21076;-88
2022/09/17 11:39:40;;;;;;;0.90;0.85;;;;;;;15.47;100.00;99174.20;2640404;89;21619;-89
2022/09/17 11:43:50;;;;;;;2.72;0.60;;;;;;;15.49;100.00;99175.66;2663118;89;21077;-89
2022/09/17 11:48:17;;;;;;;1.55;0.60;;;;;;;15.65;100.00;99168.45;2616434;91;21039;-89
2022/09/17 11:52:29;;;;;;;2.67;0.95;;;;;;;15.81;100.00;99168.25;2666949;88;21062;-90
2022/09/17 11:56:44;;;;;;;2.47;1.40;;;;;;;15.82;100.00;99165.89;2692726;86;21641;-90
2022/09/17 12:00:54;;;;;;;1.52;0.78;;;;;;;15.77;98.30;99172.33;2705884;84;21060;-90
2022/09/17 12:05:06;;;;;;;6.00;1.12;;;;;;;15.69;97.70;99164.38;2756473;84;21586;-90
2022/09/17 12:09:21;;;;;;;2.20;1.32;;;;;;;15.48;91.95;99145.86;2732787;84;21065;-90
2022/09/17 12:13:54;;;;;;;1.75;1.20;;;;;;;15.42;95.34;99159.48;2834099;82;21265;-90
2022/09/17 12:18:19;;;;;;;3.70;1.92;;;;;;;15.58;91.74;99138.88;2797255;82;21095;-91
2022/09/17 12:22:27;;;;;;;2.72;1.62;;;;;;;15.67;96.62;99143.12;2839049;82;21593;-89
2022/09/17 12:27:01;;;;;;;3.08;1.35;;;;;;;15.79;94.71;99138.11;2829162;83;21049;-91
2022/09/17 12:31:10;;;;;;;3.17;1.62;;;;;;;15.61;90.57;99141.18;2829265;82;21116;-90
2022/09/17 12:35:51;;;;;;;2.67;1.72;;;;;;;15.79;93.63;99140.80;2799798;82;21062;-90
2022/09/17 12:40:13;;;;;;;2.95;1.42;;;;;;;15.79;89.04;99130.07;2806008;82;21857;-90
2022/09/17 12:44:57;;;;;;;2.35;1.80;;;;;;;15.67;91.27;99121.69;2809958;82;20970;-91
2022/09/17 12:49:17;;;;;;;5.30;2.47;;;;;;;15.76;92.60;99115.70;2816191;83;21106;-89
2022/09/17 12:53:24;;;;;;;2.12;1.65;;;;;;;15.94;91.49;99119.86;2833771;82;21010;-90
2022/09/17 12:57:56;;;;;;;2.72;1.62;;;;;;;15.89;90.21;99118.23;2787023;83;21648;-92
2022/09/17 13:02:21;;;;;;;5.60;0.95;;;;;;;15.90;90.14;99114.53;2808148;83;21561;-90
2022/09/17 13:06:59;;;;;;;4.15;1.22;;;;;;;15.77;88.88;99103.12;2773943;83;21557;-90
2022/09/17 13:11:27;;;;;;;3.55;1.45;;;;;;;15.58;86.66;99113.41;2820602;83;21040;-90
2022/09/17 13:15:53;;;;;;;2.37;1.02;;;;;;;15.53;88.43;99115.34;2815637;83;21058;-90
2022/09/17 13:20:22;;;;;;;3.15;1.40;;;;;;;15.60;90.38;99130.66;2795255;83;21007;-90
2022/09/17 13:24:29;;;;;;;4.47;1.35;;;;;;;15.71;93.39;99128.82;2817678;83;21443;-91
2022/09/17 13:28:49;;;;;;;2.20;1.47;;;;;;;15.59;91.39;99120.44;2758726;83;21027;-91
2022/09/17 13:32:52;;;;;;;3.75;1.65;;;;;;;15.70;91.15;99113.77;2766542;83;21870;-92
2022/09/17 13:36:56;;;;;;;2.47;1.37;;;;;;;15.79;91.74;99111.30;2778110;83;21066;-90
2022/09/17 13:41:20;;;;;;;3.87;1.12;;;;;;;15.58;87.85;99109.39;2777144;83;21035;-89
2022/09/17 13:45:24;;;;;;;2.30;1.45;;;;;;;15.45;88.84;99103.36;2770949;83;21089;-92
2022/09/17 13:49:25;;;;;;;1.32;0.70;;;;;;;15.47;88.82;99096.48;2789251;83;20983;-92
2022/09/17 13:53:28;;;;;;;4.83;0.98;;;;;;;15.46;90.52;99101.00;2808741;83;21054;-92
2022/09/17 13:57:33;;;;;;;3.52;0.78;;;;;;;15.50;89.89;99090.75;2830062;83;21068;-93
2022/09/17 14:02:15;;;;;;;4.17;1.07;;;;;;;15.53;87.30;99093.89;2839889;81;21037;-93
2022/09/17 14:06:25;;;;;;;5.45;1.90;;;;;;;15.64;86.20;99094.42;2824695;83;21041;-93
2022/09/17 14:10:40;;;;;;;8.30;1.00;;;;;;;16.20;86.22;99103.18;2815867;82;21614;-93
2022/09/17 14:14:49;;;;;;;3.17;1.40;;;;;;;16.73;85.08;99093.11;2843793;82;20973;-91
2022/09/17 14:19:35;;;;;;;1.92;0.95;;;;;;;17.03;83.05;99080.83;2811703;82;21038;-92
2022/09/17 14:23:44;;;;;;;1.73;1.50;;;;;;;17.27;81.19;99070.11;2868458;82;21044;-95
2022/09/17 14:28:03;;;;;;;4.92;1.77;;;;;;;17.25;80.06;99071.64;2782194;82;20976;-96
2022/09/17 14:32:07;;;;;;;3.87;1.25;;;;;;;16.91;84.24;99067.94;2786925;82;21053;-96
2022/09/17 14:36:13;;;;;;;4.05;0.88;;;;;;;16.34;84.02;99090.74;2828215;82;21081;-96
2022/09/17 14:40:18;;;;;;;4.25;1.52;;;;;;;15.95;87.07;99081.29;2833023;82;21033;-96
2022/09/17 14:44:24;;;;;;;3.83;1.40;;;;;;;15.48;89.51;99073.51;2806539;82;21033;-94
2022/09/17 14:48:30;;;;;;;1.20;0.95;;;;;;;15.45;90.80;99081.11;2823113;82;21021;-94
2022/09/17 14:52:32;;;;;;;2.70;0.88;;;;;;;15.95;91.13;99071.91;2836314;82;21049;-95
2022/09/17 14:56:39;;;;;;;1.60;0.70;;;;;;;16.35;91.44;99071.44;2752180;82;21007;-94
2022/09/17 15:00:46;;;;;;;3.40;0.65;;;;;;;16.56;87.65;99069.23;2747388;85;21038;-96
2022/09/17 15:04:48;;;;;;;2.30;0.88;;;;;;;16.50;85.20;99070.00;2750462;85;21073;-96
2022/09/17 15:08:49;;;;;;;2.37;1.12;;;;;;;16.16;82.04;99066.22;2744374;85;21046;-96
2022/09/17 15:12:51;;;;;;;3.25;0.78;;;;;;;15.75;83.05;99067.12;2725241;83;21414;-96
2022/09/17 15:16:56;;;;;;;2.42;0.75;;;;;;;15.39;84.73;99081.34;2747111;84;21066;-93
2022/09/17 15:21:02;;;;;;;1.90;0.90;;;;;;;15.17;87.88;99083.11;2727540;85;21103;-95
2022/09/17 15:25:18;;;;;;;2.40;1.87;;;;;;;15.27;88.72;99093.05;2736070;84;21051;-93
2022/09/17 15:29:24;;;;;;;2.95;0.95;;;;;;;15.43;88.19;99096.02;2752918;84;21030;-96
2022/09/17 15:33:28;;;;;;;2.83;1.42;;;;;;;15.42;89.21;99101.87;2737994;85;21593;-94
2022/09/17 15:37:30;;;;;;;2.85;0.70;;;;;;;15.36;88.96;99120.58;2753450;84;21668;-95
2022/09/17 15:41:34;;;;;;;1.62;1.10;;;;;;;15.13;90.86;99122.81;2687353;86;21031;-93
2022/09/17 15:45:38;;;;;;;3.58;1.22;;;;;;;15.09;92.38;99139.78;2745794;83;21031;-95
2022/09/17 15:49:39;;;;;;;2.10;1.75;;;;;;;14.83;94.03;99137.00;2703253;84;21018;-96
2022/09/17 15:53:52;;;;;;;1.35;0.78;;;;;;;14.45;92.60;99154.87;2723405;85;21114;-96
2022/09/17 15:57:54;;;;;;;2.77;0.88;;;;;;;14.20;96.90;99167.09;2738822;84;20993;-94
2022/09/17 16:01:59;;;;;;;4.10;1.27;;;;;;;14.07;97.89;99157.79;2809175;83;21030;-91
2022/09/17 16:06:00;;;;;;;2.55;1.40;;;;;;;13.83;90.64;99159.59;2798429;83;21408;-92
2022/09/17 16:10:03;;;;;;;5.35;1.90;;;;;;;13.62;89.19;99175.39;2799577;83;21102;-93
2022/09/17 16:14:04;;;;;;;4.87;1.02;;;;;;;13.50;92.01;99179.77;2809434;83;21030;-92
2022/09/17 16:18:07;;;;;;;4.37;1.22;;;;;;;13.40;93.76;99185.79;2789488;83;21114;-93
2022/09/17 16:22:09;;;;;;;2.47;1.10;;;;;;;13.28;94.11;99184.80;2808851;83;21038;-92
2022/09/17 16:26:22;;;;;;;5.15;1.25;;;;;;;13.20;95.67;99188.84;2801099;83;21668;-92
2022/09/17 16:30:25;;;;;;;3.70;1.25;;;;;;;13.12;95.73;99203.52;2789321;82;21077;-90
2022/09/17 16:34:26;;;;;;;1.70;1.40;;;;;;;13.09;98.55;99198.52;2791941;83;21473;-90
2022/09/17 16:38:28;;;;;;;1.62;0.93;;;;;;;13.18;97.76;99201.53;2812992;83;21526;-89
2022/09/17 16:42:32;;;;;;;1.82;1.32;;;;;;;13.09;96.84;99206.05;2791978;83;20990;-92
2022/09/17 16:46:34;;;;;;;1.30;0.70;;;;;;;13.19;96.53;99203.20;2811642;83;21010;-92
2022/09/17 16:50:40;;;;;;;2.95;1.72;;;;;;;13.12;97.75;99198.18;2775669;83;21077;-91
2022/09/17 16:54:41;;;;;;;4.35;1.07;;;;;;;13.10;98.26;99214.88;2790060;83;21070;-91
2022/09/17 16:58:42;;;;;;;3.20;1.72;;;;;;;13.13;99.19;99210.53;2782731;83;20979;-91
2022/09/17 17:02:53;;;;;;;3.02;1.60;;;;;;;13.11;100.00;99205.86;2813613;83;20983;-92
2022/09/17 17:06:55;;;;;;;3.40;1.32;;;;;;;13.04;99.53;99206.21;2813744;83;21006;-91
2022/09/17 17:10:56;;;;;;;3.77;1.30;;;;;;;13.11;100.00;99211.20;2810953;83;21007;-91
2022/09/17 17:14:58;;;;;;;3.80;1.55;;;;;;;13.10;99.98;99214.38;2813632;83;21081;-90
2022/09/17 17:18:59;;;;;;;2.45;1.35;;;;;;;13.17;100.00;99212.36;2794174;84;21022;-91
2022/09/17 17:23:01;;;;;;;2.22;1.17;;;;;;;13.19;99.52;99207.20;2789172;83;21572;-91
2022/09/17 17:27:02;;;;;;;2.75;1.40;;;;;;;13.15;99.59;99203.17;2814573;83;21026;-91
2022/09/17 17:31:04;;;;;;;5.78;2.17;;;;;;;13.05;97.75;99199.35;2791116;83;21129;-91
2022/09/17 17:35:07;;;;;;;3.10;2.20;;;;;;;13.07;97.13;99193.86;2758330;83;21049;-90
2022/09/17 17:39:08;;;;;;;5.30;1.95;;;;;;;12.99;97.19;99194.70;2814030;83;21441;-91
2022/09/17 17:43:11;;;;;;;7.20;1.77;;;;;;;12.97;97.19;99193.55;2768770;83;21457;-91
2022/09/17 17:47:13;;;;;;;4.17;2.72;;;;;;;12.88;97.04;99194.54;2795507;83;21552;-90
2022/09/17 17:51:17;;;;;;;4.33;2.25;;;;;;;12.84;96.76;99195.88;2796684;83;21026;-90
2022/09/17 17:55:18;;;;;;;7.47;2.45;;;;;;;12.84;96.94;99198.55;2809522;83;21058;-89
2022/09/17 17:59:20;;;;;;;2.25;1.17;;;;;;;12.78;96.31;99203.23;2820821;81;21034;-89
2022/09/17 18:03:26;;;;;;;4.53;1.25;;;;;;;12.78;96.56;99207.23;2814335;83;21033;-89
2022/09/17 18:07:28;;;;;;;5.33;1.45;;;;;;;12.78;95.94;99212.57;2817763;83;21065;-90
2022/09/17 18:11:30;;;;;;;5.55;2.27;;;;;;;12.63;95.66;99215.89;2823886;81;21443;-91
2022/09/17 18:15:31;;;;;;;2.80;1.98;;;;;;;12.60;96.03;99212.22;2814224;83;20995;-92
2022/09/17 18:19:33;;;;;;;4.10;1.40;;;;;;;12.62;96.00;99218.71;2814134;83;21043;-91
2022/09/17 18:23:38;;;;;;;4.65;1.80;;;;;;;12.60;95.93;99214.05;2811521;83;21441;-90
2022/09/17 18:27:39;;;;;;;4.33;1.50;;;;;;;12.52;96.96;99208.20;2820713;83;21097;-90
2022/09/17 18:31:40;;;;;;;6.00;2.20;;;;;;;12.39;98.38;99207.34;2823686;82;21030;-91
2022/09/17 18:35:41;;;;;;;4.58;2.02;;;;;;;12.27;98.96;99210.31;2812875;83;21022;-90
2022/09/17 18:39:43;;;;;;;2.45;1.67;;;;;;;12.15;99.07;99208.97;2749797;83;21074;-89
2022/09/17 18:43:44;;;;;;;13.68;2.30;;;;;;;12.13;99.09;99203.79;2813682;83;21546;-90
2022/09/17 18:47:45;;;;;;;4.47;1.98;;;;;;;12.09;98.81;99202.45;2814175;83;20959;-91
2022/09/17 18:51:47;;;;;;;4.78;2.37;;;;;;;12.08;98.69;99191.45;2837881;81;21014;-90
2022/09/17 18:55:48;;;;;;;3.95;1.85;;;;;;;12.07;97.58;99200.45;2814052;83;21015;-89
2022/09/17 18:59:49;;;;;;;6.08;2.35;;;;;;;11.98;97.47;99216.03;2821245;83;21018;-90
2022/09/17 19:03:54;;;;;;;8.45;3.02;;;;;;;11.96;97.44;99217.55;2820486;83;20998;-90
2022/09/17 19:07:55;;;;;;;3.90;1.72;;;;;;;11.98;97.09;99217.36;2827271;81;20971;-90
2022/09/17 19:11:56;;;;;;;3.00;2.37;;;;;;;12.02;96.55;99221.43;2821803;83;21022;-91
2022/09/17 19:15:58;;;;;;;4.67;2.30;;;;;;;12.05;96.36;99218.44;2821673;83;21025;-90
2022/09/17 19:20:00;;;;;;;8.80;2.08;;;;;;;12.08;96.00;99224.77;2822259;83;21604;-89
2022/09/17 19:24:02;;;;;;;4.40;2.00;;;;;;;12.12;95.16;99223.97;2837145;83;20979;-89
2022/09/17 19:28:04;;;;;;;6.22;2.50;;;;;;;12.14;95.10;99229.96;2853113;81;21069;-90
2022/09/17 19:32:05;;;;;;;3.05;1.65;;;;;;;12.12;94.62;99234.11;2849498;83;21399;-90